createdAt,value
2023-01-21T00:03:06.149Z,16.40
2023-01-21T00:06:15.301Z,14.80
2023-01-21T00:09:23.386Z,16.20
2023-01-21T00:12:32.850Z,14.30
2023-01-21T00:15:41.028Z,17.23
2023-01-21T00:18:49.641Z,16.23
2023-01-21T00:21:57.916Z,16.73
2023-01-21T00:25:07.296Z,15.07
2023-01-21T00:28:17.215Z,14.87
2023-01-21T00:31:27.843Z,17.27
2023-01-21T00:34:36.218Z,13.10
2023-01-21T00:37:44.394Z,11.60
2023-01-21T00:40:52.623Z,18.03
2023-01-21T00:44:02.053Z,17.73
2023-01-21T00:47:10.294Z,17.07
2023-01-21T00:50:18.987Z,17.07
2023-01-21T00:53:27.841Z,16.30
2023-01-21T00:56:35.968Z,14.73
2023-01-21T00:59:45.643Z,13.03
2023-01-21T01:02:53.867Z,15.83
2023-01-21T01:06:07.997Z,20.20
2023-01-21T01:09:16.108Z,14.27
2023-01-21T01:12:24.201Z,16.37
2023-01-21T01:15:33.637Z,15.83
2023-01-21T01:18:42.006Z,17.50
2023-01-21T01:21:50.345Z,14.20
2023-01-21T01:24:58.416Z,14.20
2023-01-21T01:28:07.022Z,15.23
2023-01-21T01:31:19.562Z,14.37
2023-01-21T01:34:27.686Z,18.87
2023-01-21T01:37:35.740Z,15.70
2023-01-21T01:40:45.360Z,18.53
2023-01-21T01:43:59.065Z,14.03
2023-01-21T01:47:08.673Z,14.63
2023-01-21T01:50:20.933Z,15.63
2023-01-21T01:53:31.929Z,20.83
2023-01-21T01:56:46.031Z,17.27
2023-01-21T01:59:54.122Z,20.77
2023-01-21T02:03:22.310Z,20.07
2023-01-21T02:06:30.439Z,17.43
2023-01-21T02:09:38.715Z,18.17
2023-01-21T02:12:47.349Z,18.67
2023-01-21T02:16:47.353Z,19.53
2023-01-21T02:20:36.801Z,16.10
2023-01-21T02:24:30.143Z,20.27
2023-01-21T02:27:49.681Z,14.13
2023-01-21T02:31:25.618Z,16.43
2023-01-21T02:34:44.699Z,16.80
2023-01-21T02:38:02.444Z,18.67
2023-01-21T02:41:24.309Z,17.03
2023-01-21T02:44:40.566Z,20.33
2023-01-21T02:48:05.941Z,19.03
2023-01-21T02:51:15.471Z,19.20
2023-01-21T02:54:54.909Z,17.50
2023-01-21T02:58:09.084Z,26.37
2023-01-21T03:01:32.499Z,24.20
2023-01-21T03:04:58.901Z,21.27
2023-01-21T03:08:18.746Z,18.30
2023-01-21T03:11:27.548Z,16.37
2023-01-21T03:15:05.694Z,17.90
2023-01-21T03:18:24.874Z,19.20
2023-01-21T03:21:36.441Z,19.13
2023-01-21T03:24:52.469Z,22.80
2023-01-21T03:28:07.310Z,22.70
2023-01-21T03:31:21.969Z,22.37
2023-01-21T03:34:36.953Z,20.53
2023-01-21T03:37:53.865Z,22.13
2023-01-21T03:41:13.295Z,18.77
2023-01-21T03:44:21.911Z,17.80
2023-01-21T03:47:35.833Z,20.33
2023-01-21T03:50:53.392Z,19.67
2023-01-21T03:54:02.207Z,19.27
2023-01-21T03:57:11.622Z,18.77
2023-01-21T04:00:20.615Z,19.77
2023-01-21T04:03:28.781Z,21.23
2023-01-21T04:06:37.852Z,21.33
2023-01-21T04:09:46.389Z,18.97
2023-01-21T04:12:55.891Z,18.67
2023-01-21T04:16:04.361Z,19.10
2023-01-21T04:22:33.411Z,21.40
2023-01-21T04:25:41.515Z,20.50
2023-01-21T04:28:49.606Z,21.17
2023-01-21T04:31:57.784Z,20.47
2023-01-21T04:35:07.087Z,22.53
2023-01-21T04:38:16.758Z,15.90
2023-01-21T04:41:25.625Z,20.43
2023-01-21T04:44:33.827Z,17.90
2023-01-21T04:47:43.469Z,19.97
2023-01-21T04:50:51.785Z,17.53
2023-01-21T04:54:01.284Z,18.93
2023-01-21T04:57:10.780Z,17.43
2023-01-21T05:00:19.991Z,17.63
2023-01-21T05:03:28.681Z,16.87
2023-01-21T05:06:36.969Z,16.17
2023-01-21T05:09:46.485Z,18.30
2023-01-21T05:12:54.631Z,16.77
2023-01-21T05:16:05.763Z,17.20
2023-01-21T05:19:14.003Z,14.07
2023-01-21T05:22:22.334Z,18.33
2023-01-21T05:25:32.139Z,17.97
2023-01-21T05:28:40.280Z,15.50
2023-01-21T05:31:48.455Z,18.03
2023-01-21T05:34:56.600Z,16.63
2023-01-21T05:38:04.777Z,16.40
2023-01-21T05:41:14.279Z,17.57
2023-01-21T05:44:22.644Z,23.80
2023-01-21T05:47:30.768Z,19.43
2023-01-21T05:50:39.689Z,17.73
2023-01-21T05:53:47.826Z,18.00
2023-01-21T05:56:57.364Z,19.10
2023-01-21T06:00:07.521Z,20.93
2023-01-21T06:03:16.324Z,18.10
2023-01-21T06:06:24.482Z,21.07
2023-01-21T06:09:32.658Z,22.40
2023-01-21T06:12:42.127Z,19.30
2023-01-21T06:15:50.363Z,20.00
2023-01-21T06:18:58.715Z,23.73
2023-01-21T06:22:06.889Z,19.93
2023-01-21T06:25:15.292Z,17.90
2023-01-21T06:28:24.796Z,24.20
2023-01-21T06:31:33.083Z,22.10
2023-01-21T06:34:41.232Z,22.00
2023-01-21T06:37:49.439Z,19.43
2023-01-21T06:40:57.664Z,21.43
2023-01-21T06:44:08.212Z,16.53
2023-01-21T06:47:16.642Z,19.67
2023-01-21T06:50:24.927Z,20.90
2023-01-21T06:53:33.086Z,19.10
2023-01-21T06:56:43.712Z,21.57
2023-01-21T06:59:53.177Z,24.43
2023-01-21T07:03:01.897Z,19.87
2023-01-21T07:06:10.362Z,18.10
2023-01-21T07:09:18.780Z,19.40
2023-01-21T07:12:26.995Z,18.70
2023-01-21T07:15:36.673Z,16.17
2023-01-21T07:18:44.941Z,18.13
2023-01-21T07:21:54.268Z,20.80
2023-01-21T07:25:02.732Z,17.67
2023-01-21T07:28:11.009Z,18.10
2023-01-21T07:31:20.788Z,19.50
2023-01-21T07:34:29.255Z,17.73
2023-01-21T07:37:37.426Z,16.63
2023-01-21T07:40:48.457Z,14.87
2023-01-21T07:43:56.662Z,20.03
2023-01-21T07:47:06.474Z,18.23
2023-01-21T07:50:14.871Z,18.37
2023-01-21T07:53:23.109Z,14.80
2023-01-21T07:56:31.382Z,19.50
2023-01-21T07:59:39.543Z,7.47
2023-01-21T08:02:53.969Z,6.27
2023-01-21T08:06:02.409Z,16.50
2023-01-21T08:09:11.288Z,16.43
2023-01-21T08:12:19.630Z,16.33
2023-01-21T08:15:27.792Z,19.10
2023-01-21T08:18:37.286Z,16.57
2023-01-21T08:21:45.704Z,12.27
2023-01-21T08:24:53.814Z,16.03
2023-01-21T08:28:02.277Z,16.43
2023-01-21T08:31:14.330Z,18.83
2023-01-21T08:34:24.004Z,18.13
2023-01-21T08:37:32.104Z,17.47
2023-01-21T08:40:40.257Z,12.13
2023-01-21T08:43:48.574Z,19.17
2023-01-21T08:46:57.125Z,14.50
2023-01-21T08:50:09.521Z,21.53
2023-01-21T08:53:17.862Z,13.57
2023-01-21T08:56:26.182Z,11.97
2023-01-21T08:59:34.959Z,16.63
2023-01-21T09:02:43.254Z,14.73
2023-01-21T09:05:53.002Z,11.37
2023-01-21T09:09:01.637Z,7.90
2023-01-21T09:12:10.224Z,12.97
2023-01-21T09:15:18.640Z,13.73
2023-01-21T09:18:27.487Z,11.70
2023-01-21T09:21:37.870Z,17.53
2023-01-21T09:24:46.041Z,12.17
2023-01-21T09:27:54.175Z,14.70
2023-01-21T09:31:05.850Z,12.30
2023-01-21T09:34:14.006Z,15.53
2023-01-21T09:37:23.417Z,14.63
2023-01-21T09:40:32.155Z,18.47
2023-01-21T09:43:46.186Z,13.63
2023-01-21T09:47:02.063Z,13.00
2023-01-21T09:50:16.648Z,16.23
2023-01-21T09:53:37.994Z,18.73
2023-01-21T09:57:06.451Z,19.13
2023-01-21T10:00:34.314Z,17.00
2023-01-21T10:03:51.377Z,17.47
2023-01-21T10:07:05.087Z,17.87
2023-01-21T10:10:22.873Z,16.53
2023-01-21T10:13:50.813Z,19.50
2023-01-21T10:17:10.352Z,13.77
2023-01-21T10:20:25.568Z,19.47
2023-01-21T10:23:42.683Z,21.07
2023-01-21T10:26:55.451Z,19.17
2023-01-21T10:30:14.653Z,24.33
2023-01-21T10:33:25.609Z,22.20
2023-01-21T10:37:03.891Z,13.83
2023-01-21T10:40:42.751Z,25.00
2023-01-21T10:44:06.893Z,26.00
2023-01-21T10:47:29.698Z,17.50
2023-01-21T10:50:54.468Z,16.43
2023-01-21T10:54:15.062Z,17.00
2023-01-21T10:57:54.448Z,18.87
2023-01-21T11:01:09.122Z,13.97
2023-01-21T11:04:21.425Z,15.57
2023-01-21T11:07:42.327Z,17.90
2023-01-21T11:10:55.274Z,15.27
2023-01-21T11:14:03.942Z,15.10
2023-01-21T11:17:13.678Z,19.80
2023-01-21T11:20:29.348Z,20.40
2023-01-21T11:23:40.128Z,17.93
2023-01-21T11:26:54.578Z,17.40
2023-01-21T11:30:10.092Z,16.10
2023-01-21T11:33:28.720Z,15.73
2023-01-21T11:36:36.873Z,19.00
2023-01-21T11:39:56.226Z,19.17
2023-01-21T11:43:05.717Z,16.43
2023-01-21T11:46:36.601Z,18.37
2023-01-21T11:49:49.511Z,20.23
2023-01-21T11:53:14.233Z,20.53
2023-01-21T11:56:22.513Z,20.47
2023-01-21T11:59:35.589Z,17.37
2023-01-21T12:02:48.757Z,19.10
2023-01-21T12:06:02.620Z,17.30
2023-01-21T12:09:20.604Z,10.07
2023-01-21T12:12:46.739Z,13.53
2023-01-21T12:16:25.011Z,17.50
2023-01-21T12:19:52.523Z,14.40
2023-01-21T12:23:30.341Z,12.23
2023-01-21T12:26:45.696Z,16.83
2023-01-21T12:30:14.364Z,14.67
2023-01-21T12:33:45.880Z,14.90
2023-01-21T12:37:04.836Z,19.33
2023-01-21T12:40:21.062Z,14.10
2023-01-21T12:43:36.274Z,15.20
2023-01-21T12:46:49.083Z,14.20
2023-01-21T12:50:25.765Z,16.40
2023-01-21T12:53:44.534Z,14.93
2023-01-21T12:57:04.265Z,19.53
2023-01-21T13:00:21.646Z,14.00
2023-01-21T13:03:44.154Z,12.40
2023-01-21T13:07:03.554Z,13.40
2023-01-21T13:10:20.973Z,16.47
2023-01-21T13:13:37.015Z,23.10
2023-01-21T13:16:53.997Z,14.33
2023-01-21T13:20:13.266Z,14.70
2023-01-21T13:23:33.012Z,15.03
2023-01-21T13:26:51.929Z,10.97
2023-01-21T13:30:14.998Z,13.53
2023-01-21T13:33:41.765Z,11.47
2023-01-21T13:37:09.620Z,10.57
2023-01-21T13:40:41.161Z,11.47
2023-01-21T13:44:15.716Z,10.53
2023-01-21T13:47:55.701Z,13.50
2023-01-21T13:51:25.988Z,12.03
2023-01-21T13:54:59.661Z,28.37
2023-01-21T13:58:14.534Z,15.50
2023-01-21T14:01:32.041Z,13.20
2023-01-21T14:04:50.197Z,10.47
2023-01-21T14:08:07.843Z,11.97
2023-01-21T14:11:24.690Z,13.93
2023-01-21T14:15:12.057Z,12.63
2023-01-21T14:18:47.182Z,8.43
2023-01-21T14:22:29.276Z,9.70
2023-01-21T14:26:03.856Z,11.90
2023-01-21T14:29:24.571Z,11.30
2023-01-21T14:32:41.742Z,16.27
2023-01-21T14:36:04.189Z,11.50
2023-01-21T14:39:36.172Z,12.47
2023-01-21T14:42:49.072Z,15.33
2023-01-21T14:45:59.780Z,9.57
2023-01-21T14:49:12.579Z,14.57
2023-01-21T14:52:28.847Z,11.47
2023-01-21T14:55:39.826Z,15.37
2023-01-21T14:58:51.194Z,11.07
2023-01-21T15:02:02.223Z,11.13
2023-01-21T15:05:25.610Z,7.97
2023-01-21T15:08:46.149Z,12.87
2023-01-21T15:12:01.243Z,9.77
2023-01-21T15:15:31.012Z,11.07
2023-01-21T15:18:44.034Z,11.00
2023-01-21T15:22:24.385Z,7.40
2023-01-21T15:25:34.337Z,14.67
2023-01-21T15:28:45.992Z,10.90
2023-01-21T15:31:54.639Z,10.83
2023-01-21T15:35:16.087Z,8.83
2023-01-21T15:38:27.099Z,14.83
2023-01-21T15:41:59.888Z,14.47
2023-01-21T15:45:27.416Z,13.60
2023-01-21T15:49:37.590Z,17.77
2023-01-21T15:53:14.902Z,10.80
2023-01-21T15:56:55.809Z,13.70
2023-01-21T16:00:38.970Z,10.17
2023-01-21T16:04:13.512Z,14.30
2023-01-21T16:07:39.505Z,11.67
2023-01-21T16:11:03.445Z,10.93
2023-01-21T16:14:33.721Z,13.27
2023-01-21T16:18:04.194Z,11.93
2023-01-21T16:21:13.594Z,10.40
2023-01-21T16:24:29.405Z,10.57
2023-01-21T16:27:37.585Z,12.37
2023-01-21T16:30:55.824Z,14.83
2023-01-21T16:34:05.533Z,9.87
2023-01-21T16:37:17.761Z,9.87
2023-01-21T16:40:30.891Z,10.37
2023-01-21T16:43:46.424Z,9.90
2023-01-21T16:46:54.811Z,12.43
2023-01-21T16:50:06.387Z,11.27
2023-01-21T16:53:19.066Z,9.20
2023-01-21T16:56:30.405Z,7.60
2023-01-21T16:59:41.899Z,10.50
2023-01-21T17:02:50.539Z,9.73
2023-01-21T17:06:04.306Z,11.97
2023-01-21T17:09:26.927Z,9.23
2023-01-21T17:12:36.530Z,10.13
2023-01-21T17:15:57.345Z,10.53
2023-01-21T17:19:18.308Z,10.47
2023-01-21T17:22:34.401Z,13.30
2023-01-21T17:25:43.779Z,8.00
2023-01-21T17:28:57.663Z,10.50
2023-01-21T17:32:08.394Z,10.27
2023-01-21T17:35:23.393Z,7.93
2023-01-21T17:38:39.575Z,10.20
2023-01-21T17:41:47.917Z,7.70
2023-01-21T17:44:59.953Z,6.87
2023-01-21T17:48:19.687Z,8.17
2023-01-21T17:51:30.725Z,10.47
2023-01-21T17:54:40.540Z,10.10
2023-01-21T17:57:48.890Z,10.43
2023-01-21T18:00:57.197Z,8.20
2023-01-21T18:04:05.698Z,12.03
2023-01-21T18:07:24.033Z,9.00
2023-01-21T18:10:33.865Z,8.50
2023-01-21T18:13:42.117Z,6.90
2023-01-21T18:16:52.864Z,8.83
2023-01-21T18:20:01.040Z,11.33
2023-01-21T18:23:12.565Z,10.93
2023-01-21T18:26:34.096Z,10.70
2023-01-21T18:29:42.812Z,8.70
2023-01-21T18:32:51.296Z,10.97
2023-01-21T18:35:59.809Z,13.60
2023-01-21T18:39:13.798Z,13.37
2023-01-21T18:42:23.605Z,9.43
2023-01-21T18:45:31.974Z,9.63
2023-01-21T18:48:40.239Z,11.93
2023-01-21T18:51:48.931Z,11.03
2023-01-21T18:54:58.177Z,9.47
2023-01-21T18:58:14.999Z,10.77
2023-01-21T19:01:24.801Z,10.23
2023-01-21T19:04:33.166Z,10.97
2023-01-21T19:07:42.237Z,15.07
2023-01-21T19:10:50.597Z,9.00
2023-01-21T19:14:00.312Z,10.10
2023-01-21T19:17:13.703Z,11.57
2023-01-21T19:20:24.562Z,13.50
2023-01-21T19:23:32.880Z,10.00
2023-01-21T19:26:41.259Z,8.20
2023-01-21T19:29:51.279Z,11.70
2023-01-21T19:33:01.913Z,12.23
2023-01-21T19:36:16.419Z,12.23
2023-01-21T19:39:25.343Z,10.57
2023-01-21T19:42:34.194Z,11.53
2023-01-21T19:45:45.196Z,9.53
2023-01-21T19:48:53.748Z,13.17
2023-01-21T19:52:02.631Z,15.67
2023-01-21T19:55:16.350Z,13.53
2023-01-21T19:58:29.205Z,11.20
2023-01-21T20:01:39.945Z,12.63
2023-01-21T20:04:48.442Z,15.70
2023-01-21T20:07:57.652Z,10.30
2023-01-21T20:11:06.406Z,11.97
2023-01-21T20:14:14.550Z,12.93
2023-01-21T20:17:24.659Z,10.27
2023-01-21T20:20:34.689Z,11.97
2023-01-21T20:23:43.410Z,9.80
2023-01-21T20:26:51.959Z,15.17
2023-01-21T20:30:26.562Z,11.03
2023-01-21T20:33:29.811Z,13.90
2023-01-21T20:36:39.572Z,12.40
2023-01-21T20:39:47.939Z,10.40
2023-01-21T20:42:57.775Z,10.33
2023-01-21T20:46:13.429Z,11.53
2023-01-21T20:49:23.072Z,11.00
2023-01-21T20:52:31.435Z,12.57
2023-01-21T20:55:40.313Z,12.40
2023-01-21T20:58:49.526Z,12.03
2023-01-21T21:01:58.723Z,14.77
2023-01-21T21:05:10.117Z,11.33
2023-01-21T21:08:22.418Z,13.13
2023-01-21T21:11:30.756Z,13.97
2023-01-21T21:14:38.885Z,14.70
2023-01-21T21:17:48.153Z,14.90
2023-01-21T21:20:57.678Z,13.43
2023-01-21T21:24:07.699Z,16.00
2023-01-21T21:27:17.005Z,13.13
2023-01-21T21:30:30.055Z,14.90
2023-01-21T21:33:38.902Z,15.10
2023-01-21T21:36:48.652Z,11.53
2023-01-21T21:39:56.876Z,13.43
2023-01-21T21:43:23.396Z,14.70
2023-01-21T21:46:49.081Z,11.10
2023-01-21T21:49:57.412Z,13.13
2023-01-21T21:53:08.276Z,14.00
2023-01-21T21:56:18.879Z,12.37
2023-01-21T21:59:27.249Z,12.13
2023-01-21T22:02:35.789Z,12.87
2023-01-21T22:05:57.805Z,14.27
2023-01-21T22:09:08.691Z,16.83
2023-01-21T22:12:17.062Z,13.43
2023-01-21T22:15:25.313Z,13.70
2023-01-21T22:18:36.152Z,14.77
2023-01-21T22:21:44.319Z,14.53
2023-01-21T22:24:54.872Z,12.57
2023-01-21T22:28:03.157Z,17.03
2023-01-21T22:31:15.169Z,14.63
2023-01-21T22:34:23.506Z,13.73
2023-01-21T22:37:31.672Z,15.10
2023-01-21T22:40:41.216Z,17.00
2023-01-21T22:43:50.744Z,16.63
2023-01-21T22:46:58.932Z,15.67
2023-01-21T22:50:08.543Z,14.20
2023-01-21T22:53:16.642Z,13.40
2023-01-21T22:56:49.630Z,16.07
2023-01-21T22:59:55.695Z,15.37
2023-01-21T23:03:03.935Z,16.30
2023-01-21T23:06:12.426Z,16.63
2023-01-21T23:09:20.763Z,16.27
2023-01-21T23:12:30.503Z,14.00
2023-01-21T23:15:43.995Z,13.43
2023-01-21T23:18:52.343Z,14.63
2023-01-21T23:22:00.748Z,15.03
2023-01-21T23:25:10.263Z,15.53
2023-01-21T23:28:20.127Z,18.17
2023-01-21T23:31:28.490Z,14.10
2023-01-21T23:34:36.929Z,13.90
2023-01-21T23:37:44.979Z,17.00
2023-01-21T23:40:53.142Z,14.10
2023-01-21T23:44:03.264Z,18.50
2023-01-21T23:47:12.002Z,11.83
2023-01-21T23:50:20.428Z,12.33
2023-01-21T23:53:28.998Z,13.63
2023-01-21T23:56:37.964Z,16.77
2023-01-21T23:59:47.866Z,12.17
